Time;durP1;ratioP1;P1;durP2;ratioP2;P2;SDS_P1;SDS_P2;PMS_P1;PMS_P2;Temp;Humidity;BMP_temperature;BMP_pressure;BME280_temperature;BME280_humidity;BME280_pressure;Samples;Min_cycle;Max_cycle;Signal;HPM_P1;HPM_P2
2022/09/12 00:01:26;;;;;;;13.43;7.97;;;15.30;99.90;;;;;;5054647;28;20032;-74
2022/09/12 00:03:58;;;;;;;14.13;8.30;;;15.30;99.90;;;;;;5072580;28;20090;-75
2022/09/12 00:06:30;;;;;;;16.13;8.52;;;15.30;99.90;;;;;;5072250;28;20039;-72
2022/09/12 00:08:58;;;;;;;16.88;8.35;;;15.20;99.90;;;;;;5072574;28;20056;-74
2022/09/12 00:11:24;;;;;;;18.45;9.25;;;15.30;99.90;;;;;;5072642;28;20423;-73
2022/09/12 00:13:51;;;;;;;14.70;8.32;;;15.30;99.90;;;;;;5072229;28;20511;-72
2022/09/12 00:16:23;;;;;;;12.80;8.40;;;15.30;99.90;;;;;;5072266;28;20029;-72
2022/09/12 00:18:50;;;;;;;16.65;8.00;;;15.30;99.90;;;;;;5072076;28;20032;-73
2022/09/12 00:21:16;;;;;;;13.75;8.50;;;15.20;99.90;;;;;;5072104;28;20042;-73
2022/09/12 00:23:43;;;;;;;13.52;8.52;;;15.20;99.90;;;;;;5071771;28;20024;-73
2022/09/12 00:26:09;;;;;;;13.70;8.65;;;15.20;99.90;;;;;;5072102;28;20094;-73
2022/09/12 00:28:36;;;;;;;13.88;8.10;;;15.10;99.90;;;;;;5071737;28;20462;-72
2022/09/12 00:31:14;;;;;;;11.70;8.02;;;15.20;99.90;;;;;;5053941;28;20450;-72
2022/09/12 00:33:41;;;;;;;15.32;9.02;;;15.10;99.90;;;;;;5071701;28;20093;-72
2022/09/12 00:36:14;;;;;;;14.32;8.73;;;15.10;99.90;;;;;;5071527;28;20511;-73
2022/09/12 00:38:41;;;;;;;15.75;8.50;;;15.10;99.90;;;;;;5071901;28;20017;-73
2022/09/12 00:41:18;;;;;;;15.82;7.60;;;15.00;99.90;;;;;;5071739;28;20112;-73
2022/09/12 00:43:50;;;;;;;13.07;7.82;;;15.00;99.90;;;;;;5071261;28;20024;-73
2022/09/12 00:46:31;;;;;;;13.23;7.78;;;15.00;99.90;;;;;;5071471;28;20093;-73
2022/09/12 00:49:20;;;;;;;12.48;7.20;;;15.00;99.90;;;;;;5053593;28;20048;-72
2022/09/12 00:51:51;;;;;;;13.25;8.30;;;14.90;99.90;;;;;;5071321;28;20527;-74
2022/09/12 00:54:25;;;;;;;15.23;7.97;;;14.90;99.90;;;;;;5071134;28;20029;-74
2022/09/12 00:56:53;;;;;;;12.20;7.47;;;14.90;99.90;;;;;;5070989;28;20047;-74
2022/09/12 00:59:21;;;;;;;;;;;14.80;99.90;;;;;;5071935;28;20024;-73
2022/09/12 01:01:49;;;;;;;12.20;7.50;;;14.80;99.90;;;;;;5070288;28;19967;-72
2022/09/12 01:04:18;;;;;;;16.63;7.47;;;14.80;99.90;;;;;;5071261;28;20029;-73
2022/09/12 01:06:45;;;;;;;12.27;8.13;;;14.80;99.90;;;;;;5070960;28;20146;-72
2022/09/12 01:09:18;;;;;;;10.40;7.20;;;14.80;99.90;;;;;;5071254;28;20029;-73
2022/09/12 01:11:45;;;;;;;13.38;7.93;;;14.80;99.90;;;;;;5071033;28;20036;-74
2022/09/12 01:14:14;;;;;;;13.48;8.00;;;14.80;99.90;;;;;;5071435;28;20025;-72
2022/09/12 01:16:40;;;;;;;14.25;7.68;;;14.80;99.90;;;;;;5070762;28;20032;-73
2022/09/12 01:19:30;;;;;;;13.05;7.75;;;14.80;99.90;;;;;;5070771;28;20051;-73
2022/09/12 01:22:14;;;;;;;16.25;7.45;;;14.80;99.90;;;;;;5070618;28;20029;-73
2022/09/12 01:25:01;;;;;;;12.90;7.20;;;14.70;99.90;;;;;;5070696;28;20037;-73
2022/09/12 01:27:42;;;;;;;14.35;7.57;;;14.70;99.90;;;;;;5070675;28;20040;-73
2022/09/12 01:30:17;;;;;;;13.75;8.27;;;14.70;99.90;;;;;;5052784;28;20063;-72
2022/09/12 01:32:58;;;;;;;15.23;8.63;;;14.70;99.90;;;;;;5070559;28;20089;-73
2022/09/12 01:35:42;;;;;;;17.23;8.27;;;14.60;99.90;;;;;;5070374;28;20029;-72
2022/09/12 01:38:33;;;;;;;11.82;7.53;;;14.60;99.90;;;;;;5070945;28;20052;-73
2022/09/12 01:41:08;;;;;;;13.45;8.10;;;14.60;99.90;;;;;;5050302;28;20033;-73
2022/09/12 01:43:39;;;;;;;14.32;8.05;;;14.60;99.90;;;;;;5049486;28;20052;-74
2022/09/12 01:46:23;;;;;;;12.95;7.75;;;14.60;99.90;;;;;;5050584;28;20049;-74
2022/09/12 01:49:28;;;;;;;12.98;8.50;;;14.50;99.90;;;;;;5057663;28;20421;-73
2022/09/12 01:52:17;;;;;;;15.80;8.07;;;14.50;99.90;;;;;;5050330;28;20170;-73
2022/09/12 01:55:05;;;;;;;13.73;8.50;;;14.50;99.90;;;;;;5049454;28;20493;-73
2022/09/12 01:57:37;;;;;;;16.02;7.95;;;14.50;99.90;;;;;;5050382;28;20045;-74
2022/09/12 02:00:09;;;;;;;10.98;7.68;;;14.50;99.90;;;;;;5050320;28;20029;-73
2022/09/12 02:02:49;;;;;;;13.38;7.78;;;14.50;99.90;;;;;;5049970;28;20042;-73
2022/09/12 02:05:28;;;;;;;12.57;7.70;;;14.50;99.90;;;;;;5050695;28;20028;-72
2022/09/12 02:08:09;;;;;;;17.13;8.20;;;14.50;99.90;;;;;;5049235;28;20113;-73
2022/09/12 02:11:06;;;;;;;13.68;7.32;;;14.50;99.90;;;;;;5050390;28;20033;-74
2022/09/12 02:13:46;;;;;;;12.00;7.72;;;14.40;99.90;;;;;;5050384;28;20028;-72
2022/09/12 02:16:22;;;;;;;14.25;8.52;;;14.40;99.90;;;;;;5054351;28;20029;-72
2022/09/12 02:18:58;;;;;;;15.02;7.80;;;14.30;99.90;;;;;;5054245;28;20094;-73
2022/09/12 02:21:26;;;;;;;13.20;7.90;;;14.30;99.90;;;;;;5054045;28;20046;-73
2022/09/12 02:23:57;;;;;;;14.70;8.25;;;14.30;99.90;;;;;;5053890;28;20355;-73
2022/09/12 02:26:45;;;;;;;14.18;7.78;;;14.30;99.90;;;;;;5054207;28;20048;-73
2022/09/12 02:29:11;;;;;;;;;;;14.30;99.90;;;;;;5054705;28;20037;-72
2022/09/12 02:31:44;;;;;;;11.93;7.38;;;14.30;99.90;;;;;;5051571;28;20323;-73
2022/09/12 02:35:06;;;;;;;16.40;7.45;;;14.30;99.90;;;;;;5054237;28;20095;-74
2022/09/12 02:38:08;;;;;;;14.02;8.00;;;14.30;99.90;;;;;;5009701;28;20472;-73
2022/09/12 02:40:34;;;;;;;13.35;7.75;;;14.30;99.90;;;;;;5053962;28;20037;-73
2022/09/12 02:43:02;;;;;;;14.05;7.55;;;14.20;99.90;;;;;;5053781;28;20045;-73
2022/09/12 02:45:28;;;;;;;10.55;7.22;;;14.20;99.90;;;;;;5053783;28;20044;-73
2022/09/12 02:48:00;;;;;;;13.95;8.10;;;14.20;99.90;;;;;;5053550;28;20084;-72
2022/09/12 02:50:26;;;;;;;12.52;8.30;;;14.20;99.90;;;;;;5052601;28;20029;-73
2022/09/12 02:52:54;;;;;;;11.77;7.18;;;14.20;99.90;;;;;;5054089;28;20017;-72
2022/09/12 02:55:20;;;;;;;14.23;7.43;;;14.20;99.90;;;;;;5053606;28;20433;-73
2022/09/12 02:57:46;;;;;;;12.40;7.78;;;14.20;99.90;;;;;;5053742;28;20086;-72
2022/09/12 03:00:12;;;;;;;12.75;8.10;;;14.10;99.90;;;;;;5053690;28;20037;-73
2022/09/12 03:03:19;;;;;;;15.05;8.80;;;14.10;99.90;;;;;;5068917;28;20045;-74
2022/09/12 03:05:58;;;;;;;15.68;9.02;;;14.10;99.90;;;;;;5053711;28;20125;-74
2022/09/12 03:08:39;;;;;;;17.20;8.80;;;14.10;99.90;;;;;;5068833;28;20025;-73
2022/09/12 03:11:05;;;;;;;15.02;8.40;;;14.10;99.90;;;;;;5053798;28;20359;-73
2022/09/12 03:13:48;;;;;;;16.42;8.35;;;14.10;99.90;;;;;;5053144;28;20045;-73
2022/09/12 03:16:40;;;;;;;12.18;7.63;;;14.10;99.90;;;;;;5052031;28;20032;-74
2022/09/12 03:19:28;;;;;;;13.45;7.90;;;14.10;99.90;;;;;;5053145;28;20025;-74
2022/09/12 03:22:12;;;;;;;12.65;7.68;;;14.10;99.90;;;;;;5053225;28;20464;-74
2022/09/12 03:24:53;;;;;;;16.15;9.27;;;14.00;99.90;;;;;;5052616;28;20048;-73
2022/09/12 03:27:44;;;;;;;17.17;9.77;;;14.00;99.90;;;;;;5052969;28;20371;-73
2022/09/12 03:30:11;;;;;;;18.45;10.20;;;14.10;99.90;;;;;;5052959;28;20103;-73
2022/09/12 03:32:45;;;;;;;13.18;8.32;;;14.10;99.90;;;;;;5052996;28;20043;-73
2022/09/12 03:35:12;;;;;;;12.38;8.02;;;14.10;99.90;;;;;;5053345;28;20040;-74
2022/09/12 03:37:38;;;;;;;19.15;9.77;;;14.10;99.90;;;;;;5052946;28;20024;-73
2022/09/12 03:40:05;;;;;;;15.43;8.32;;;14.00;99.90;;;;;;5052836;28;20043;-73
2022/09/12 03:42:30;;;;;;;11.98;8.50;;;14.00;99.90;;;;;;5052841;28;20075;-74
2022/09/12 03:44:56;;;;;;;15.75;8.93;;;14.10;99.90;;;;;;5052861;28;20415;-73
2022/09/12 03:47:21;;;;;;;16.67;9.00;;;14.20;99.90;;;;;;5051957;28;20072;-73
2022/09/12 03:49:47;;;;;;;14.63;8.02;;;14.00;99.90;;;;;;5051546;28;20120;-73
2022/09/12 03:52:13;;;;;;;16.52;9.10;;;14.00;99.90;;;;;;5052549;28;20029;-73
2022/09/12 03:54:38;;;;;;;16.77;9.55;;;13.90;99.90;;;;;;5041852;28;20039;-75
2022/09/12 03:57:04;;;;;;;19.90;9.85;;;14.00;99.90;;;;;;5052924;28;20026;-74
2022/09/12 03:59:30;;;;;;;22.33;9.15;;;14.00;99.90;;;;;;5052374;28;20021;-73
2022/09/12 04:01:56;;;;;;;15.95;8.88;;;14.00;99.90;;;;;;5053052;28;20037;-73
2022/09/12 04:04:22;;;;;;;13.60;8.55;;;13.90;99.90;;;;;;5052727;28;20339;-74
2022/09/12 04:06:48;;;;;;;19.13;9.50;;;14.00;99.90;;;;;;5052425;28;20122;-74
2022/09/12 04:09:14;;;;;;;16.90;9.63;;;14.00;99.90;;;;;;5052124;28;20029;-74
2022/09/12 04:11:39;;;;;;;14.57;8.95;;;13.90;99.90;;;;;;5052355;28;20073;-75
2022/09/12 04:14:05;;;;;;;18.45;10.07;;;14.00;99.90;;;;;;5052669;28;20025;-74
2022/09/12 04:16:31;;;;;;;18.63;9.57;;;14.00;99.90;;;;;;5052054;28;20033;-74
2022/09/12 04:18:57;;;;;;;13.40;8.15;;;14.00;99.90;;;;;;5052060;28;20557;-73
2022/09/12 04:21:23;;;;;;;15.15;7.85;;;14.00;99.90;;;;;;5052062;28;20032;-74
2022/09/12 04:23:49;;;;;;;15.57;8.80;;;14.00;99.90;;;;;;5050601;28;20033;-73
2022/09/12 04:26:16;;;;;;;15.07;9.68;;;13.90;99.90;;;;;;5051072;28;20127;-73
2022/09/12 04:28:42;;;;;;;16.88;9.07;;;13.90;99.90;;;;;;5051892;28;20332;-73
2022/09/12 04:31:19;;;;;;;18.83;9.40;;;13.90;99.90;;;;;;5051810;28;20029;-73
2022/09/12 04:33:45;;;;;;;16.05;8.77;;;13.90;99.90;;;;;;5051919;28;20400;-73
2022/09/12 04:36:15;;;;;;;15.68;9.02;;;13.90;99.90;;;;;;5049897;28;20033;-73
2022/09/12 04:38:43;;;;;;;19.38;10.02;;;13.90;99.90;;;;;;5051258;28;20487;-73
2022/09/12 04:41:27;;;;;;;17.58;9.75;;;13.90;99.90;;;;;;5051901;28;20046;-74
2022/09/12 04:43:58;;;;;;;19.20;10.63;;;13.90;99.90;;;;;;5051755;28;20464;-73
2022/09/12 04:46:25;;;;;;;15.23;9.40;;;14.00;99.90;;;;;;5051358;28;20068;-72
2022/09/12 04:48:51;;;;;;;14.40;8.88;;;13.90;99.90;;;;;;5051262;28;20025;-73
2022/09/12 04:51:29;;;;;;;14.80;8.13;;;13.90;99.90;;;;;;5051296;28;20036;-73
2022/09/12 04:54:00;;;;;;;22.50;9.75;;;13.90;99.90;;;;;;5051324;28;20047;-72
2022/09/12 04:56:28;;;;;;;23.30;10.18;;;13.80;99.90;;;;;;5051266;28;20021;-73
2022/09/12 04:58:56;;;;;;;15.35;9.73;;;13.90;99.90;;;;;;5051988;28;20057;-73
2022/09/12 05:01:22;;;;;;;;;;;13.90;99.90;;;;;;5051634;28;20486;-74
2022/09/12 05:03:49;;;;;;;19.67;9.70;;;13.90;99.90;;;;;;5050927;28;19967;-74
2022/09/12 05:06:31;;;;;;;18.93;10.10;;;13.90;99.90;;;;;;5051223;28;20459;-74
2022/09/12 05:08:58;;;;;;;17.13;9.52;;;14.00;99.90;;;;;;5066968;28;20132;-74
2022/09/12 05:11:35;;;;;;;20.65;10.70;;;14.00;99.90;;;;;;5051265;28;20455;-75
2022/09/12 05:14:01;;;;;;;19.00;10.40;;;14.00;99.90;;;;;;5051560;28;20025;-74
2022/09/12 05:16:30;;;;;;;19.70;11.27;;;14.00;99.90;;;;;;5051192;28;20041;-74
2022/09/12 05:18:57;;;;;;;19.67;11.38;;;14.10;99.90;;;;;;5051115;28;20037;-73
2022/09/12 05:21:23;;;;;;;22.37;11.60;;;14.00;99.90;;;;;;5050742;28;20464;-74
2022/09/12 05:23:53;;;;;;;17.23;9.40;;;14.10;99.90;;;;;;5050653;28;20438;-74
2022/09/12 05:26:20;;;;;;;18.92;10.45;;;14.10;99.90;;;;;;5051307;28;20025;-74
2022/09/12 05:28:47;;;;;;;15.18;9.40;;;14.10;99.90;;;;;;5050717;28;20060;-73
2022/09/12 05:31:16;;;;;;;18.27;10.60;;;14.10;99.90;;;;;;5050597;28;20021;-73
2022/09/12 05:33:43;;;;;;;19.25;11.35;;;14.20;99.90;;;;;;5050617;28;20025;-72
2022/09/12 05:36:16;;;;;;;21.05;10.43;;;14.10;99.90;;;;;;5049461;28;20029;-73
2022/09/12 05:38:42;;;;;;;22.20;12.82;;;14.20;99.90;;;;;;5050340;28;20443;-73
2022/09/12 05:41:16;;;;;;;25.35;13.25;;;14.20;99.90;;;;;;5050645;28;20037;-74
2022/09/12 05:43:42;;;;;;;19.48;10.80;;;14.20;99.90;;;;;;5032583;28;20056;-73
2022/09/12 05:46:15;;;;;;;18.90;9.40;;;14.20;99.90;;;;;;5050293;28;20081;-72
2022/09/12 05:48:44;;;;;;;18.42;10.75;;;14.20;99.90;;;;;;5049681;28;20307;-73
2022/09/12 05:51:12;;;;;;;19.35;11.05;;;14.20;99.90;;;;;;5050224;28;20455;-75
2022/09/12 05:53:39;;;;;;;24.20;11.25;;;14.30;99.90;;;;;;5050367;28;20053;-74
2022/09/12 05:56:14;;;;;;;18.37;10.33;;;14.30;99.90;;;;;;5050865;28;20087;-75
2022/09/12 05:58:42;;;;;;;19.40;10.82;;;14.40;99.90;;;;;;5050254;28;20565;-75
2022/09/12 06:01:10;;;;;;;;;;;14.40;99.90;;;;;;5050457;28;20463;-75
2022/09/12 06:03:38;;;;;;;;;;;14.40;99.90;;;;;;5050405;28;20183;-75
2022/09/12 06:06:05;;;;;;;17.58;10.30;;;14.40;99.90;;;;;;5050215;28;20331;-75
2022/09/12 06:08:37;;;;;;;27.88;12.63;;;14.50;99.90;;;;;;5050233;28;20037;-81
2022/09/12 06:11:06;;;;;;;20.30;12.05;;;14.50;99.90;;;;;;5050888;28;20025;-75
2022/09/12 06:13:35;;;;;;;21.02;11.30;;;14.50;99.90;;;;;;5032913;28;20032;-74
2022/09/12 06:16:13;;;;;;;24.38;11.98;;;14.60;99.90;;;;;;5050323;28;20037;-78
2022/09/12 06:18:40;;;;;;;24.95;11.57;;;14.60;99.90;;;;;;5032603;28;20033;-78
2022/09/12 06:21:08;;;;;;;27.63;12.43;;;14.70;99.90;;;;;;5035376;28;20485;-75
2022/09/12 06:23:35;;;;;;;20.98;12.60;;;14.70;99.90;;;;;;5050316;28;20071;-75
2022/09/12 06:26:05;;;;;;;22.33;12.40;;;14.80;99.90;;;;;;5066360;28;20115;-77
2022/09/12 06:28:32;;;;;;;21.92;11.88;;;14.80;99.90;;;;;;5050443;28;20033;-75
2022/09/12 06:31:05;;;;;;;28.02;14.98;;;14.80;99.90;;;;;;5046154;28;20487;-77
2022/09/12 06:33:33;;;;;;;33.55;15.95;;;14.90;99.90;;;;;;5038804;28;20463;-76
2022/09/12 06:36:07;;;;;;;24.08;14.15;;;14.90;99.90;;;;;;5049012;28;20032;-77
2022/09/12 06:38:32;;;;;;;22.13;11.80;;;15.00;99.90;;;;;;5050092;28;20017;-78
2022/09/12 06:40:59;;;;;;;26.77;12.85;;;15.10;99.90;;;;;;5051799;28;20018;-77
2022/09/12 06:43:27;;;;;;;26.30;14.98;;;15.10;99.90;;;;;;5051146;28;20056;-77
2022/09/12 06:45:55;;;;;;;29.30;15.32;;;15.20;99.90;;;;;;5050640;28;20025;-76
2022/09/12 06:48:22;;;;;;;21.80;12.43;;;15.30;99.90;;;;;;5049987;28;20041;-77
2022/09/12 06:51:09;;;;;;;23.30;13.80;;;15.30;99.90;;;;;;5049766;28;20041;-76
2022/09/12 06:53:38;;;;;;;28.38;15.40;;;15.30;99.90;;;;;;5050370;28;20031;-76
2022/09/12 06:56:25;;;;;;;23.75;13.68;;;15.40;99.90;;;;;;5052547;28;20021;-77
2022/09/12 06:58:52;;;;;;;18.97;12.63;;;15.40;99.90;;;;;;5051555;28;20710;-74
2022/09/12 07:01:19;;;;;;;23.20;12.63;;;15.50;99.90;;;;;;5051879;28;20608;-81
2022/09/12 07:03:56;;;;;;;23.40;12.75;;;15.60;99.90;;;;;;5052685;28;20073;-77
2022/09/12 07:06:28;;;;;;;24.25;13.43;;;15.60;99.90;;;;;;5052588;28;20029;-74
2022/09/12 07:08:54;;;;;;;23.88;13.30;;;15.70;99.90;;;;;;5053083;28;20371;-76
2022/09/12 07:11:23;;;;;;;20.17;12.15;;;15.80;99.90;;;;;;5052996;28;20032;-76
2022/09/12 07:13:55;;;;;;;21.77;11.70;;;15.80;99.90;;;;;;5053949;28;20033;-78
2022/09/12 07:16:21;;;;;;;20.00;12.13;;;15.90;99.90;;;;;;5053597;28;20025;-78
2022/09/12 07:18:55;;;;;;;24.45;12.68;;;15.90;99.90;;;;;;5052628;28;20390;-77
2022/09/12 07:21:21;;;;;;;21.92;12.70;;;16.10;99.90;;;;;;5054224;28;20115;-77
2022/09/12 07:23:48;;;;;;;24.67;13.55;;;16.10;99.90;;;;;;5053651;28;20474;-77
2022/09/12 07:26:15;;;;;;;25.05;13.50;;;16.10;99.90;;;;;;5054899;28;20052;-79
2022/09/12 07:28:41;;;;;;;23.95;13.07;;;16.20;99.90;;;;;;5053951;28;20044;-76
2022/09/12 07:31:09;;;;;;;23.80;13.75;;;16.30;99.90;;;;;;5054162;28;20029;-75
2022/09/12 07:33:36;;;;;;;20.40;12.40;;;16.40;99.90;;;;;;5054551;28;20056;-77
2022/09/12 07:36:07;;;;;;;26.95;11.77;;;16.50;99.90;;;;;;5055398;28;20033;-75
2022/09/12 07:38:33;;;;;;;32.88;12.98;;;16.50;99.90;;;;;;5054870;28;20025;-75
2022/09/12 07:41:00;;;;;;;29.33;13.70;;;16.60;99.90;;;;;;5053348;28;20311;-75
2022/09/12 07:43:25;;;;;;;28.30;12.63;;;16.60;99.90;;;;;;5052399;28;20469;-75
2022/09/12 07:45:55;;;;;;;21.50;12.20;;;16.70;99.90;;;;;;5054231;28;20037;-76
2022/09/12 07:48:21;;;;;;;43.03;13.60;;;16.80;99.90;;;;;;5052157;28;20045;-75
2022/09/12 07:50:55;;;;;;;32.70;15.18;;;16.90;99.90;;;;;;5053254;28;20041;-81
2022/09/12 07:53:21;;;;;;;41.75;13.75;;;16.90;99.90;;;;;;5052514;28;20390;-76
2022/09/12 07:55:53;;;;;;;30.20;12.80;;;17.00;99.90;;;;;;5054098;28;20186;-75
2022/09/12 07:58:19;;;;;;;26.20;12.27;;;17.10;99.90;;;;;;5053404;28;20112;-73
2022/09/12 08:00:44;;;;;;;38.75;13.15;;;17.10;99.90;;;;;;5052949;28;20119;-74
2022/09/12 08:03:10;;;;;;;19.92;11.23;;;17.20;99.90;;;;;;5052978;28;20049;-76
2022/09/12 08:05:36;;;;;;;23.45;11.18;;;17.30;99.90;;;;;;5053640;28;20364;-76
2022/09/12 08:08:01;;;;;;;21.38;11.80;;;17.40;99.90;;;;;;5056644;28;20466;-75
2022/09/12 08:10:27;;;;;;;19.17;10.85;;;17.50;99.90;;;;;;5053574;28;20133;-76
2022/09/12 08:12:53;;;;;;;19.58;10.60;;;17.60;99.90;;;;;;5053846;28;20029;-76
2022/09/12 08:15:19;;;;;;;43.95;13.25;;;17.70;99.90;;;;;;5055873;28;20036;-76
2022/09/12 08:17:44;;;;;;;45.58;12.80;;;17.80;99.90;;;;;;5055104;28;20021;-77
2022/09/12 08:20:11;;;;;;;39.28;12.18;;;18.00;99.90;;;;;;5054241;28;20100;-77
2022/09/12 08:22:37;;;;;;;19.23;9.77;;;18.20;99.90;;;;;;5053988;28;20029;-78
2022/09/12 08:25:03;;;;;;;15.85;8.98;;;19.30;99.90;;;;;;5053844;28;20036;-75
2022/09/12 08:27:29;;;;;;;17.23;8.15;;;20.50;99.90;;;;;;5052081;28;20037;-77
2022/09/12 08:29:55;;;;;;;13.80;7.68;;;21.80;99.90;;;;;;5052747;28;20353;-76
2022/09/12 08:32:20;;;;;;;15.98;6.90;;;22.70;98.40;;;;;;5051521;28;20059;-75
2022/09/12 08:34:46;;;;;;;13.38;7.57;;;23.50;96.30;;;;;;5053254;28;20029;-77
2022/09/12 08:37:12;;;;;;;11.93;6.88;;;24.10;94.70;;;;;;5053929;28;20029;-75
2022/09/12 08:39:37;;;;;;;10.77;6.90;;;24.90;96.90;;;;;;5053250;28;20037;-77
2022/09/12 08:42:05;;;;;;;10.10;5.93;;;25.40;95.30;;;;;;5051357;28;20359;-76
2022/09/12 08:44:50;;;;;;;10.98;6.03;;;26.00;93.50;;;;;;5052190;28;20017;-78
2022/09/12 08:47:36;;;;;;;7.82;5.80;;;26.50;92.50;;;;;;5051490;28;20029;-75
2022/09/12 08:50:08;;;;;;;9.43;5.95;;;27.00;92.30;;;;;;5070903;28;20463;-75
2022/09/12 08:52:41;;;;;;;10.15;5.45;;;27.10;89.30;;;;;;5054547;28;20111;-76
2022/09/12 08:55:24;;;;;;;15.25;6.07;;;27.30;89.10;;;;;;5035316;28;20033;-75
2022/09/12 08:57:50;;;;;;;10.15;6.45;;;27.60;87.40;;;;;;5052990;28;20080;-78
2022/09/12 09:00:18;;;;;;;15.60;7.50;;;27.20;85.00;;;;;;5052351;28;20045;-76
2022/09/12 09:02:58;;;;;;;8.90;6.03;;;28.00;86.00;;;;;;5052051;28;20056;-76
2022/09/12 09:05:58;;;;;;;12.68;6.05;;;28.50;84.90;;;;;;5051727;28;20344;-76
2022/09/12 09:08:42;;;;;;;12.45;6.05;;;28.50;83.00;;;;;;5051077;28;20052;-76
2022/09/12 09:11:21;;;;;;;10.85;6.22;;;29.00;82.40;;;;;;5034211;28;20098;-73
2022/09/12 09:16:59;;;;;;;7.57;4.35;;;29.10;78.90;;;;;;5072346;28;20086;-75
2022/09/12 09:19:37;;;;;;;9.85;5.55;;;28.80;83.10;;;;;;5071268;28;20370;-75
2022/09/12 09:22:13;;;;;;;12.55;5.18;;;28.70;76.70;;;;;;5053014;28;20029;-76
2022/09/12 09:24:52;;;;;;;8.85;4.35;;;28.50;76.40;;;;;;5071114;28;20040;-74
2022/09/12 09:27:29;;;;;;;8.95;4.28;;;28.50;79.20;;;;;;5070374;28;20067;-75
2022/09/12 09:29:55;;;;;;;5.38;3.65;;;28.70;79.50;;;;;;5070645;28;20105;-76
2022/09/12 09:32:26;;;;;;;7.50;3.38;;;28.80;76.70;;;;;;5053528;28;20033;-78
2022/09/12 09:34:52;;;;;;;6.38;4.10;;;29.00;76.90;;;;;;5071233;28;20071;-75
2022/09/12 09:37:24;;;;;;;6.35;3.80;;;29.20;76.70;;;;;;5069740;28;20052;-75
2022/09/12 09:40:05;;;;;;;7.97;3.88;;;29.00;73.40;;;;;;5072190;28;20028;-74
2022/09/12 09:42:44;;;;;;;11.70;4.38;;;28.80;74.40;;;;;;5071588;28;20024;-77
2022/09/12 09:45:23;;;;;;;8.02;4.70;;;28.70;72.40;;;;;;5071599;28;20039;-74
2022/09/12 09:48:14;;;;;;;7.82;4.40;;;27.70;73.50;;;;;;5070452;28;20367;-76
2022/09/12 09:50:40;;;;;;;6.82;4.57;;;27.80;75.40;;;;;;5052729;28;20131;-76
2022/09/12 09:53:17;;;;;;;7.50;4.57;;;28.10;75.80;;;;;;5071467;28;20099;-75
2022/09/12 09:55:43;;;;;;;;;;;28.00;72.90;;;;;;5071879;28;20031;-77
2022/09/12 09:58:09;;;;;;;5.25;3.47;;;27.70;73.30;;;;;;5072248;28;19909;-79
2022/09/12 10:00:38;;;;;;;10.27;3.95;;;28.00;75.90;;;;;;5071455;28;20060;-76
2022/09/12 10:03:09;;;;;;;6.10;4.32;;;28.20;73.90;;;;;;5052626;28;20490;-75
2022/09/12 10:05:47;;;;;;;7.03;4.47;;;28.30;75.80;;;;;;5070487;28;20028;-78
2022/09/12 10:08:23;;;;;;;;;;;28.10;74.40;;;;;;5053608;28;20033;-75
2022/09/12 10:10:57;;;;;;;6.63;4.00;;;28.00;73.90;;;;;;5050286;28;20354;-73
2022/09/12 10:13:46;;;;;;;7.65;4.65;;;28.20;73.80;;;;;;5066623;28;20033;-74
2022/09/12 10:16:20;;;;;;;5.93;4.40;;;28.30;75.70;;;;;;5037508;28;20498;-74
2022/09/12 10:18:48;;;;;;;7.82;3.47;;;27.90;74.10;;;;;;5061647;28;20036;-74
2022/09/12 10:21:15;;;;;;;9.27;3.47;;;28.30;77.20;;;;;;5052250;28;20366;-72
2022/09/12 10:23:42;;;;;;;10.57;4.40;;;28.50;75.10;;;;;;5067884;28;20107;-74
2022/09/12 10:26:13;;;;;;;11.30;4.40;;;28.50;74.20;;;;;;5033211;28;20108;-74
2022/09/12 10:28:50;;;;;;;5.80;3.63;;;28.60;74.30;;;;;;5068613;28;20033;-74
2022/09/12 10:31:27;;;;;;;6.72;4.32;;;28.60;73.00;;;;;;5054743;28;20413;-74
2022/09/12 10:33:56;;;;;;;6.40;3.70;;;28.40;71.60;;;;;;5062503;28;20032;-73
2022/09/12 10:36:23;;;;;;;4.95;3.38;;;28.00;71.70;;;;;;5065179;28;20063;-79
2022/09/12 10:38:51;;;;;;;5.32;3.80;;;27.60;73.70;;;;;;5057535;28;20169;-83
2022/09/12 10:41:17;;;;;;;5.78;3.28;;;27.90;73.20;;;;;;5074388;28;20286;-75
2022/09/12 10:43:44;;;;;;;6.47;3.33;;;27.90;71.70;;;;;;5054707;28;20367;-74
2022/09/12 10:46:21;;;;;;;5.60;3.03;;;27.90;71.70;;;;;;5068091;28;20029;-74
2022/09/12 10:49:11;;;;;;;4.03;2.25;;;28.00;71.40;;;;;;5062227;28;20085;-75
2022/09/12 10:51:36;;;;;;;3.60;2.70;;;27.80;72.20;;;;;;5063530;28;20028;-74
2022/09/12 10:54:06;;;;;;;5.45;2.42;;;27.50;69.60;;;;;;5066992;28;20043;-75
2022/09/12 10:56:42;;;;;;;3.55;2.35;;;27.50;70.60;;;;;;5053726;28;20086;-76
2022/09/12 10:59:32;;;;;;;3.95;2.55;;;27.10;69.90;;;;;;5053970;28;20017;-76
2022/09/12 11:02:13;;;;;;;12.10;2.72;;;27.10;69.80;;;;;;5053304;28;20119;-77
2022/09/12 11:05:09;;;;;;;4.18;2.58;;;26.50;70.40;;;;;;5053430;28;20047;-76
2022/09/12 11:07:49;;;;;;;3.05;2.00;;;26.50;70.90;;;;;;5012852;28;20025;-75
2022/09/12 11:10:31;;;;;;;3.08;1.88;;;26.50;70.60;;;;;;5055015;28;20052;-78
2022/09/12 11:13:27;;;;;;;2.78;1.42;;;26.30;69.50;;;;;;5055877;28;20087;-81
2022/09/12 11:16:21;;;;;;;5.35;1.98;;;26.20;70.30;;;;;;5055306;28;20041;-78
2022/09/12 11:18:53;;;;;;;5.53;2.25;;;26.10;71.50;;;;;;5054667;28;20112;-77
2022/09/12 11:21:31;;;;;;;6.55;2.30;;;26.10;71.90;;;;;;5055646;28;20029;-79
2022/09/12 11:24:36;;;;;;;9.45;2.10;;;26.20;71.50;;;;;;5055694;28;20122;-78
2022/09/12 11:27:03;;;;;;;3.75;1.48;;;26.30;71.40;;;;;;5055813;28;20435;-78
2022/09/12 11:29:35;;;;;;;4.22;2.00;;;26.40;71.00;;;;;;5038383;28;20406;-77
2022/09/12 11:32:22;;;;;;;2.63;1.60;;;26.10;69.90;;;;;;5075776;28;20065;-80
2022/09/12 11:34:48;;;;;;;2.25;1.80;;;26.10;69.80;;;;;;5037230;28;20037;-77
2022/09/12 11:37:32;;;;;;;4.05;1.80;;;26.10;69.30;;;;;;5054285;28;20087;-80
2022/09/12 11:40:23;;;;;;;2.92;1.42;;;26.20;69.10;;;;;;5054841;28;20029;-83
2022/09/12 11:42:54;;;;;;;5.55;1.75;;;25.90;69.40;;;;;;5048147;28;20083;-82
2022/09/12 11:45:34;;;;;;;2.28;1.70;;;25.90;68.40;;;;;;5067325;28;20131;-79
2022/09/12 11:48:06;;;;;;;2.83;1.42;;;25.50;68.10;;;;;;5036930;28;20069;-81
2022/09/12 11:50:32;;;;;;;2.38;1.80;;;25.10;68.90;;;;;;5054580;28;20538;-82
2022/09/12 11:53:15;;;;;;;2.65;2.35;;;25.00;69.50;;;;;;5055609;28;20064;-83
2022/09/12 11:55:49;;;;;;;3.88;1.42;;;25.00;69.20;;;;;;5054993;28;20043;-80
2022/09/12 11:58:18;;;;;;;2.00;1.70;;;24.80;69.60;;;;;;5054468;28;20058;-81
2022/09/12 12:00:52;;;;;;;1.90;1.20;;;24.70;69.90;;;;;;5054963;28;20034;-82
2022/09/12 12:03:32;;;;;;;2.50;1.50;;;24.50;69.70;;;;;;5053670;28;20065;-82
2022/09/12 12:06:06;;;;;;;1.73;1.48;;;24.50;70.40;;;;;;5052891;28;20040;-75
2022/09/12 12:08:38;;;;;;;1.42;1.30;;;24.30;69.70;;;;;;5051919;28;20105;-75
2022/09/12 12:11:06;;;;;;;2.10;1.40;;;24.20;70.30;;;;;;5053598;28;20027;-75
2022/09/12 12:13:38;;;;;;;2.42;1.40;;;24.20;71.60;;;;;;5052608;28;20082;-79
2022/09/12 12:16:25;;;;;;;2.25;1.50;;;24.30;72.10;;;;;;5052684;28;20075;-76
2022/09/12 12:19:04;;;;;;;2.58;1.70;;;24.10;71.40;;;;;;5043617;28;20049;-76
2022/09/12 12:21:39;;;;;;;2.65;1.60;;;24.20;72.20;;;;;;5052452;28;20033;-77
2022/09/12 12:24:08;;;;;;;3.28;1.75;;;24.20;73.10;;;;;;5052425;28;20120;-76
2022/09/12 12:26:39;;;;;;;6.20;2.25;;;24.20;73.20;;;;;;5036016;28;20031;-77
2022/09/12 12:29:17;;;;;;;4.38;1.80;;;24.20;73.80;;;;;;5054805;28;20454;-77
2022/09/12 12:32:04;;;;;;;3.30;1.83;;;24.20;74.40;;;;;;5052561;28;20065;-76
2022/09/12 12:34:43;;;;;;;2.53;1.90;;;24.20;74.80;;;;;;5069517;28;20040;-76
2022/09/12 12:37:18;;;;;;;2.17;1.50;;;24.10;74.90;;;;;;5057381;28;20029;-78
2022/09/12 12:39:50;;;;;;;3.28;1.58;;;24.10;74.60;;;;;;5063134;28;20097;-76
2022/09/12 12:42:34;;;;;;;4.35;1.83;;;24.10;74.50;;;;;;5064485;28;20037;-75
2022/09/12 12:45:22;;;;;;;3.80;1.50;;;24.10;74.80;;;;;;5056617;28;20038;-75
2022/09/12 12:47:53;;;;;;;7.40;2.28;;;24.20;75.30;;;;;;5067791;28;20044;-77
2022/09/12 12:50:18;;;;;;;5.93;1.98;;;24.20;75.80;;;;;;5034057;28;20036;-76
2022/09/12 12:52:44;;;;;;;2.58;1.58;;;24.20;76.00;;;;;;5049813;28;20107;-75
2022/09/12 12:55:22;;;;;;;2.63;1.90;;;24.20;76.30;;;;;;5050267;28;20029;-78
2022/09/12 12:57:52;;;;;;;3.90;1.85;;;24.20;76.20;;;;;;5050522;28;20065;-76
2022/09/12 13:00:28;;;;;;;4.32;2.30;;;24.20;76.80;;;;;;5037784;28;20033;-74
2022/09/12 13:03:04;;;;;;;2.85;1.90;;;24.30;77.40;;;;;;5050006;28;20128;-75
2022/09/12 13:05:48;;;;;;;2.45;2.08;;;24.30;77.50;;;;;;5051125;28;20021;-77
2022/09/12 13:08:16;;;;;;;3.42;2.15;;;24.30;77.40;;;;;;5052027;28;20075;-74
2022/09/12 13:11:17;;;;;;;4.35;2.15;;;24.20;77.90;;;;;;5052081;28;20033;-76